Time;durP1;ratioP1;P1;durP2;ratioP2;P2;SDS_P1;SDS_P2;PMS_P1;PMS_P2;Temp;Humidity;BMP_temperature;BMP_pressure;BME280_temperature;BME280_humidity;BME280_pressure;Samples;Min_cycle;Max_cycle;Signal;HPM_P1;HPM_P2
2022/09/27 00:01:13;;;;;;;1999.90;999.90;;;10.50;99.90;;;;;;5049957;28;20484;-64
2022/09/27 00:03:40;;;;;;;1999.90;999.90;;;10.50;99.90;;;;;;5049627;28;20838;-65
2022/09/27 00:06:09;;;;;;;1999.90;999.90;;;10.50;99.90;;;;;;5049991;28;20459;-64
2022/09/27 00:08:37;;;;;;;1999.90;999.90;;;10.50;99.90;;;;;;5049740;28;20451;-65
2022/09/27 00:11:06;;;;;;;1999.90;999.90;;;10.50;99.90;;;;;;5049450;28;20444;-65
2022/09/27 00:13:34;;;;;;;1999.90;999.90;;;10.50;99.90;;;;;;5049579;28;20571;-66
2022/09/27 00:16:04;;;;;;;1999.90;999.90;;;10.50;99.90;;;;;;5049820;28;20938;-66
2022/09/27 00:18:31;;;;;;;1999.90;999.90;;;10.50;99.90;;;;;;5049878;28;20567;-65
2022/09/27 00:21:05;;;;;;;1999.90;999.90;;;10.50;99.90;;;;;;5049397;28;20490;-65
2022/09/27 00:23:33;;;;;;;1999.90;999.90;;;10.50;99.90;;;;;;5049575;28;20810;-64
2022/09/27 00:26:00;;;;;;;1999.90;999.90;;;10.50;99.90;;;;;;5049861;28;20444;-66
2022/09/27 00:28:27;;;;;;;1999.90;999.90;;;10.50;99.90;;;;;;5049914;28;20448;-64
2022/09/27 00:30:56;;;;;;;1999.90;999.90;;;10.40;99.90;;;;;;5049361;28;20450;-65
2022/09/27 00:33:23;;;;;;;1999.90;999.90;;;10.50;99.90;;;;;;5049606;28;20827;-64
2022/09/27 00:35:49;;;;;;;1999.90;999.90;;;10.50;99.90;;;;;;5049558;28;20454;-65
2022/09/27 00:38:16;;;;;;;1999.90;999.90;;;10.40;99.90;;;;;;5049763;28;20439;-65
2022/09/27 00:40:43;;;;;;;1999.90;999.90;;;10.50;99.90;;;;;;5049403;28;20989;-66
2022/09/27 00:43:19;;;;;;;1999.90;999.90;;;10.50;99.90;;;;;;5049391;28;20452;-65
2022/09/27 00:45:52;;;;;;;1999.90;999.90;;;10.50;99.90;;;;;;5048093;28;20443;-65
2022/09/27 00:48:26;;;;;;;1999.90;999.90;;;10.50;99.90;;;;;;5048188;28;21005;-64
2022/09/27 00:50:56;;;;;;;1999.90;999.90;;;10.50;99.90;;;;;;5049263;28;20483;-63
2022/09/27 00:53:30;;;;;;;1999.90;999.90;;;10.50;99.90;;;;;;5048587;28;20530;-67
2022/09/27 00:56:01;;;;;;;1999.90;999.90;;;10.50;99.90;;;;;;5049179;28;20539;-65
2022/09/27 00:58:32;;;;;;;1999.90;999.90;;;10.50;99.90;;;;;;5049353;28;20447;-65
2022/09/27 01:01:05;;;;;;;1999.90;999.90;;;10.50;99.90;;;;;;5048667;28;20570;-64
2022/09/27 01:03:39;;;;;;;1999.90;999.90;;;10.50;99.90;;;;;;5049116;28;21008;-65
2022/09/27 01:06:08;;;;;;;1999.90;999.90;;;10.60;99.90;;;;;;5049249;28;20511;-65
2022/09/27 01:08:35;;;;;;;1999.90;999.90;;;10.60;99.90;;;;;;5052445;28;20478;-65
2022/09/27 01:11:14;;;;;;;1999.90;999.90;;;10.60;99.90;;;;;;5052850;28;20531;-61
2022/09/27 01:13:54;;;;;;;1999.90;999.90;;;10.50;99.90;;;;;;5052681;28;20483;-66
2022/09/27 01:16:29;;;;;;;1999.90;999.90;;;10.50;99.90;;;;;;5052772;28;20443;-65
2022/09/27 01:19:10;;;;;;;1999.90;999.90;;;10.50;99.90;;;;;;5052809;28;20444;-67
2022/09/27 01:21:47;;;;;;;1999.90;999.90;;;10.60;99.90;;;;;;5052751;28;20579;-65
2022/09/27 01:24:52;;;;;;;1999.90;999.90;;;10.60;99.90;;;;;;5052693;28;20928;-61
2022/09/27 01:27:59;;;;;;;1999.90;999.90;;;10.60;99.90;;;;;;5052591;28;20856;-65
2022/09/27 01:30:31;;;;;;;1999.90;999.90;;;10.60;99.90;;;;;;5052688;28;20440;-64
2022/09/27 01:33:13;;;;;;;1999.90;999.90;;;10.60;99.90;;;;;;5052155;28;20447;-65
2022/09/27 01:35:54;;;;;;;1999.90;999.90;;;10.60;99.90;;;;;;5052827;28;20530;-66
2022/09/27 01:38:27;;;;;;;1999.90;999.90;;;10.50;99.90;;;;;;5052328;28;20443;-66
2022/09/27 01:41:00;;;;;;;1999.90;999.90;;;10.60;99.90;;;;;;5052219;28;20867;-65
2022/09/27 01:43:32;;;;;;;1999.90;999.90;;;10.60;99.90;;;;;;5052463;28;20448;-66
2022/09/27 01:46:06;;;;;;;1999.90;999.90;;;10.60;99.90;;;;;;5052463;28;20953;-65
2022/09/27 01:48:38;;;;;;;1999.90;999.90;;;10.50;99.90;;;;;;5052419;28;20842;-66
2022/09/27 01:51:09;;;;;;;1999.90;999.90;;;10.50;99.90;;;;;;5051928;28;20444;-65
2022/09/27 01:53:39;;;;;;;1999.90;999.90;;;10.50;99.90;;;;;;5051797;28;20459;-66
2022/09/27 01:56:10;;;;;;;1999.90;999.90;;;10.50;99.90;;;;;;5052000;28;20448;-64
2022/09/27 01:58:43;;;;;;;1999.90;999.90;;;10.50;99.90;;;;;;5052376;28;20447;-64
2022/09/27 02:01:13;;;;;;;1999.90;999.90;;;10.50;99.90;;;;;;5051717;28;20566;-64
2022/09/27 02:03:43;;;;;;;1999.90;999.90;;;10.60;99.90;;;;;;5051800;28;20489;-64
2022/09/27 02:06:13;;;;;;;1999.90;999.90;;;10.60;99.90;;;;;;5051794;28;20452;-65
2022/09/27 02:08:45;;;;;;;1999.90;999.90;;;10.60;99.90;;;;;;5052079;28;20451;-66
2022/09/27 02:11:14;;;;;;;1999.90;999.90;;;10.60;99.90;;;;;;5052186;28;20563;-65
2022/09/27 02:13:46;;;;;;;1999.90;999.90;;;10.60;99.90;;;;;;5051718;28;20471;-64
2022/09/27 02:16:23;;;;;;;1999.90;999.90;;;10.60;99.90;;;;;;5052002;28;21016;-65
2022/09/27 02:18:58;;;;;;;1999.90;999.90;;;10.60;99.90;;;;;;5051431;28;20460;-64
2022/09/27 02:21:37;;;;;;;1999.90;999.90;;;10.60;99.90;;;;;;5051721;28;20570;-66
2022/09/27 02:24:06;;;;;;;1999.90;999.90;;;10.60;99.90;;;;;;5051454;28;20525;-63
2022/09/27 02:26:38;;;;;;;1999.90;999.90;;;10.60;99.90;;;;;;5051747;28;20889;-65
2022/09/27 02:29:10;;;;;;;1999.90;999.90;;;10.60;99.90;;;;;;5051756;28;20526;-66
2022/09/27 02:31:39;;;;;;;1999.90;999.90;;;10.60;99.90;;;;;;5051492;28;20447;-65
2022/09/27 02:34:10;;;;;;;1999.90;999.90;;;10.50;99.90;;;;;;5051664;28;20566;-65
2022/09/27 02:36:37;;;;;;;1999.90;999.90;;;10.50;99.90;;;;;;5051775;28;20444;-64
2022/09/27 02:39:05;;;;;;;1999.90;999.90;;;10.50;99.90;;;;;;5051586;28;20452;-65
2022/09/27 02:41:32;;;;;;;1999.90;999.90;;;10.50;99.90;;;;;;5051132;28;20903;-65
2022/09/27 02:44:02;;;;;;;1999.90;999.90;;;10.50;99.90;;;;;;5051082;28;20546;-63
2022/09/27 02:46:47;;;;;;;1999.90;999.90;;;10.50;99.90;;;;;;5051056;28;20448;-64
2022/09/27 02:49:29;;;;;;;1999.90;999.90;;;10.50;99.90;;;;;;5051430;28;20444;-65
2022/09/27 02:52:06;;;;;;;1999.90;999.90;;;10.50;99.90;;;;;;5050601;28;20448;-65
2022/09/27 02:54:40;;;;;;;1999.90;999.90;;;10.40;99.90;;;;;;5051208;28;20470;-64
2022/09/27 02:57:20;;;;;;;1999.90;999.90;;;10.40;99.90;;;;;;5050863;28;20452;-64
2022/09/27 02:59:52;;;;;;;1999.90;999.90;;;10.30;99.90;;;;;;5050930;28;20454;-65
2022/09/27 03:02:27;;;;;;;1999.90;999.90;;;10.30;99.90;;;;;;5050460;28;20491;-65
2022/09/27 03:04:59;;;;;;;1999.90;999.90;;;10.30;99.90;;;;;;5050935;28;20563;-67
2022/09/27 03:07:26;;;;;;;1999.90;999.90;;;10.20;99.90;;;;;;5050479;28;20535;-66
2022/09/27 03:09:54;;;;;;;1999.90;999.90;;;10.20;99.90;;;;;;5050959;28;20829;-64
2022/09/27 03:12:24;;;;;;;1999.90;999.90;;;10.10;99.90;;;;;;5050456;28;20454;-66
2022/09/27 03:14:51;;;;;;;1999.90;999.90;;;10.00;99.90;;;;;;5050803;28;20480;-66
2022/09/27 03:17:20;;;;;;;1999.90;999.90;;;10.00;99.90;;;;;;5050768;28;21122;-60
2022/09/27 03:19:47;;;;;;;1999.90;999.90;;;10.00;99.90;;;;;;5050686;28;20502;-64
2022/09/27 03:22:13;;;;;;;1999.90;999.90;;;9.90;99.90;;;;;;5050198;28;20916;-66
2022/09/27 03:24:41;;;;;;;1999.90;999.90;;;9.90;99.90;;;;;;5050255;28;20842;-65
2022/09/27 03:27:09;;;;;;;1999.90;999.90;;;9.90;99.90;;;;;;5050446;28;20543;-66
2022/09/27 03:29:36;;;;;;;1999.90;999.90;;;10.00;99.90;;;;;;5049794;28;20446;-66
2022/09/27 03:32:03;;;;;;;1999.90;999.90;;;10.00;99.90;;;;;;5050405;28;21169;-63
2022/09/27 03:34:31;;;;;;;1999.90;999.90;;;10.10;99.90;;;;;;5050366;28;20472;-64
2022/09/27 03:36:58;;;;;;;1999.90;999.90;;;10.00;99.90;;;;;;5050524;28;20490;-64
2022/09/27 03:39:25;;;;;;;1999.90;999.90;;;10.00;99.90;;;;;;5050307;28;20497;-65
2022/09/27 03:41:53;;;;;;;1999.90;999.90;;;10.00;99.90;;;;;;5050149;28;20486;-63
2022/09/27 03:44:19;;;;;;;1999.90;999.90;;;9.90;99.90;;;;;;5050365;28;20475;-65
2022/09/27 03:46:46;;;;;;;1999.90;999.90;;;9.90;99.90;;;;;;5050251;28;20547;-64
2022/09/27 03:49:13;;;;;;;1999.90;999.90;;;9.90;99.90;;;;;;5050288;28;20480;-64
2022/09/27 03:51:42;;;;;;;1999.90;999.90;;;9.90;99.90;;;;;;5049894;28;20448;-61
2022/09/27 03:54:09;;;;;;;1999.90;999.90;;;9.80;99.90;;;;;;5050287;28;20863;-65
2022/09/27 03:56:36;;;;;;;1999.90;999.90;;;9.80;99.90;;;;;;5049873;28;20451;-62
2022/09/27 03:59:03;;;;;;;1999.90;999.90;;;9.70;99.90;;;;;;5050234;28;20448;-66
2022/09/27 04:01:30;;;;;;;1999.90;999.90;;;9.70;99.90;;;;;;5049702;28;20440;-64
2022/09/27 04:03:57;;;;;;;1999.90;999.90;;;9.70;99.90;;;;;;5050019;28;20466;-66
2022/09/27 04:06:25;;;;;;;1999.90;999.90;;;9.70;99.90;;;;;;5050034;28;20542;-65
2022/09/27 04:08:54;;;;;;;1999.90;999.90;;;9.70;99.90;;;;;;5049914;28;20479;-64
2022/09/27 04:11:22;;;;;;;1999.90;999.90;;;9.80;99.90;;;;;;5049691;28;20538;-65
2022/09/27 04:13:49;;;;;;;1999.90;999.90;;;9.70;99.90;;;;;;5049349;28;20562;-65
2022/09/27 04:16:16;;;;;;;1999.90;999.90;;;9.80;99.90;;;;;;5049850;28;20535;-66
2022/09/27 04:18:43;;;;;;;1999.90;999.90;;;9.80;99.90;;;;;;5049479;28;20448;-65
2022/09/27 04:21:10;;;;;;;1999.90;999.90;;;9.80;99.90;;;;;;5049631;28;20817;-64
2022/09/27 04:23:37;;;;;;;1999.90;999.90;;;9.80;99.90;;;;;;5049475;28;20546;-64
2022/09/27 04:26:05;;;;;;;1999.90;999.90;;;9.80;99.90;;;;;;5049868;28;20585;-66
2022/09/27 04:28:32;;;;;;;1999.90;999.90;;;9.80;99.90;;;;;;5049663;28;20537;-66
2022/09/27 04:30:59;;;;;;;1999.90;999.90;;;9.80;99.90;;;;;;5049546;28;20446;-65
2022/09/27 04:33:26;;;;;;;1999.90;999.90;;;9.80;99.90;;;;;;5049434;28;20447;-64
2022/09/27 04:38:37;;;;;;;1999.90;999.90;;;9.80;99.90;;;;;;5047333;28;20593;-60
2022/09/27 04:41:06;;;;;;;1999.90;999.90;;;9.90;99.90;;;;;;5049827;28;20530;-63
2022/09/27 04:43:34;;;;;;;1999.90;999.90;;;9.90;99.90;;;;;;5053294;28;20519;-64
2022/09/27 04:46:01;;;;;;;1999.90;999.90;;;9.90;99.90;;;;;;5053687;28;20459;-64
2022/09/27 04:48:27;;;;;;;1999.90;999.90;;;9.90;99.90;;;;;;5053979;28;20448;-63
2022/09/27 04:50:58;;;;;;;1999.90;999.90;;;9.90;99.90;;;;;;5053447;28;20994;-65
2022/09/27 04:53:25;;;;;;;1999.90;999.90;;;9.90;99.90;;;;;;5053428;28;20446;-66
2022/09/27 04:55:53;;;;;;;1999.90;999.90;;;10.00;99.90;;;;;;5053782;28;20447;-65
2022/09/27 04:58:21;;;;;;;1999.90;999.90;;;10.00;99.90;;;;;;5051570;28;20979;-63
2022/09/27 05:00:49;;;;;;;1999.90;999.90;;;10.00;99.90;;;;;;5052821;28;20448;-65
2022/09/27 05:03:15;;;;;;;1999.90;999.90;;;10.00;99.90;;;;;;5047778;28;20503;-62
2022/09/27 05:05:42;;;;;;;1999.90;999.90;;;10.00;99.90;;;;;;5050780;28;20480;-65
2022/09/27 05:08:09;;;;;;;1999.90;999.90;;;10.00;99.90;;;;;;5050917;28;20530;-65
2022/09/27 05:10:36;;;;;;;1999.90;999.90;;;10.00;99.90;;;;;;5052282;28;20539;-64
2022/09/27 05:13:03;;;;;;;1999.90;999.90;;;10.00;99.90;;;;;;5050988;28;20534;-66
2022/09/27 05:15:31;;;;;;;1999.90;999.90;;;10.00;99.90;;;;;;5047821;28;20559;-64
2022/09/27 05:17:58;;;;;;;1999.90;999.90;;;10.00;99.90;;;;;;5051783;28;20535;-66
2022/09/27 05:20:25;;;;;;;1999.90;999.90;;;10.00;99.90;;;;;;5051200;28;20999;-67
2022/09/27 05:22:52;;;;;;;1999.90;999.90;;;10.00;99.90;;;;;;5048328;28;20604;-67
2022/09/27 05:25:19;;;;;;;1999.90;999.90;;;10.00;99.90;;;;;;5050470;28;20470;-66
2022/09/27 05:27:47;;;;;;;1999.90;999.90;;;10.00;99.90;;;;;;5049624;28;20450;-67
2022/09/27 05:30:13;;;;;;;1999.90;999.90;;;10.00;99.90;;;;;;5050943;28;20448;-68
2022/09/27 05:32:44;;;;;;;1999.90;999.90;;;10.00;99.90;;;;;;5051055;28;20539;-67
2022/09/27 05:35:11;;;;;;;1999.90;999.90;;;10.00;99.90;;;;;;5051368;28;20921;-66
2022/09/27 05:37:39;;;;;;;1999.90;999.90;;;10.00;99.90;;;;;;5052881;28;20845;-66
2022/09/27 05:40:07;;;;;;;1999.90;999.90;;;10.00;99.90;;;;;;5052430;28;20460;-66
2022/09/27 05:42:34;;;;;;;1999.90;999.90;;;9.90;99.90;;;;;;5052225;28;20571;-66
2022/09/27 05:45:01;;;;;;;1999.90;999.90;;;9.90;99.90;;;;;;5051912;28;20467;-65
2022/09/27 05:47:28;;;;;;;1999.90;999.90;;;9.90;99.90;;;;;;5050299;28;20992;-66
2022/09/27 05:49:56;;;;;;;1999.90;999.90;;;9.90;99.90;;;;;;5051875;28;20467;-67
2022/09/27 05:52:23;;;;;;;1999.90;999.90;;;9.90;99.90;;;;;;5051911;28;20448;-67
2022/09/27 05:54:50;;;;;;;1999.90;999.90;;;9.90;99.90;;;;;;5051806;28;20892;-66
2022/09/27 05:57:17;;;;;;;1999.90;999.90;;;9.90;99.90;;;;;;5052551;28;20845;-65
2022/09/27 05:59:44;;;;;;;1999.90;999.90;;;9.90;99.90;;;;;;5052915;28;20535;-67
2022/09/27 06:02:11;;;;;;;1999.90;999.90;;;9.80;99.90;;;;;;5051856;28;20490;-62
2022/09/27 06:04:38;;;;;;;1999.90;999.90;;;9.90;99.90;;;;;;5044839;28;20474;-64
2022/09/27 06:07:06;;;;;;;1999.90;999.90;;;9.80;99.90;;;;;;5044203;28;20458;-65
2022/09/27 06:09:33;;;;;;;1999.90;999.90;;;9.80;99.90;;;;;;5045078;28;20804;-64
2022/09/27 06:12:00;;;;;;;1999.90;999.90;;;9.80;99.90;;;;;;5050803;28;20517;-63
2022/09/27 06:14:27;;;;;;;1999.90;999.90;;;9.90;99.90;;;;;;5050921;28;20494;-64
2022/09/27 06:16:55;;;;;;;1999.90;999.90;;;9.80;99.90;;;;;;5050622;28;20946;-65
2022/09/27 06:19:22;;;;;;;1999.90;999.90;;;9.80;99.90;;;;;;5050915;28;20458;-66
2022/09/27 06:21:50;;;;;;;1999.90;999.90;;;9.80;99.90;;;;;;5049750;28;20462;-65
2022/09/27 06:24:18;;;;;;;1999.90;999.90;;;9.90;99.90;;;;;;5050414;28;20491;-64
2022/09/27 06:26:45;;;;;;;1999.90;999.90;;;9.90;99.90;;;;;;5051270;28;20446;-65
2022/09/27 06:29:12;;;;;;;1999.90;999.90;;;9.90;99.90;;;;;;5051256;28;20952;-64
2022/09/27 06:31:39;;;;;;;1999.90;999.90;;;10.00;99.90;;;;;;5048226;28;20453;-66
2022/09/27 06:34:07;;;;;;;1999.90;999.90;;;10.00;99.90;;;;;;5051093;28;20460;-64
2022/09/27 06:36:34;;;;;;;1999.90;999.90;;;10.00;99.90;;;;;;5051189;28;20444;-63
2022/09/27 06:39:01;;;;;;;1999.90;999.90;;;10.00;99.90;;;;;;5049862;28;20454;-63
2022/09/27 06:41:30;;;;;;;1999.90;999.90;;;10.00;99.90;;;;;;5051428;28;20460;-64
2022/09/27 06:43:56;;;;;;;1999.90;999.90;;;10.00;99.90;;;;;;5051460;28;20487;-64
2022/09/27 06:46:23;;;;;;;1999.90;999.90;;;10.00;99.90;;;;;;5051765;28;20447;-63
2022/09/27 06:48:50;;;;;;;1999.90;999.90;;;10.10;99.90;;;;;;5051540;28;20527;-64
2022/09/27 06:51:17;;;;;;;1999.90;999.90;;;10.10;99.90;;;;;;5051807;28;20452;-63
2022/09/27 06:53:44;;;;;;;1999.90;999.90;;;10.10;99.90;;;;;;5051295;28;21005;-66
2022/09/27 06:56:10;;;;;;;1999.90;999.90;;;10.00;99.90;;;;;;5051613;28;20452;-63
2022/09/27 07:01:28;;;;;;;1999.90;999.90;;;9.80;99.90;;;;;;5051122;28;20428;-64
2022/09/27 07:03:54;;;;;;;1999.90;999.90;;;9.70;99.90;;;;;;5050792;28;20487;-64
2022/09/27 07:06:22;;;;;;;1999.90;999.90;;;9.60;99.90;;;;;;5050398;28;20452;-64
2022/09/27 07:08:51;;;;;;;1999.90;999.90;;;9.50;99.90;;;;;;5051549;28;20463;-63
2022/09/27 07:11:19;;;;;;;1999.90;999.90;;;9.50;99.90;;;;;;5050882;28;20829;-64
2022/09/27 07:13:47;;;;;;;1999.90;999.90;;;9.60;99.90;;;;;;5050895;28;20993;-63
2022/09/27 07:16:14;;;;;;;1999.90;999.90;;;9.50;99.90;;;;;;5051345;28;20897;-64
2022/09/27 07:18:42;;;;;;;1999.90;999.90;;;9.50;99.90;;;;;;5051282;28;20452;-63
2022/09/27 07:21:09;;;;;;;1999.90;999.90;;;9.40;99.90;;;;;;5050944;28;20448;-65
2022/09/27 07:23:36;;;;;;;1999.90;999.90;;;9.40;99.90;;;;;;5050838;28;20849;-63
2022/09/27 07:26:05;;;;;;;1999.90;999.90;;;9.50;99.90;;;;;;5050803;28;20561;-64
2022/09/27 07:28:33;;;;;;;1999.90;999.90;;;9.50;99.90;;;;;;5050774;28;20484;-63
2022/09/27 07:31:02;;;;;;;1999.90;999.90;;;9.60;99.90;;;;;;5050965;28;20458;-64
2022/09/27 07:33:29;;;;;;;1999.90;999.90;;;9.70;99.90;;;;;;5050700;28;20450;-65
2022/09/27 07:35:56;;;;;;;1999.90;999.90;;;9.80;99.90;;;;;;5050858;28;20448;-64
2022/09/27 07:38:22;;;;;;;1999.90;999.90;;;9.90;99.90;;;;;;5050975;28;20458;-63
2022/09/27 07:40:49;;;;;;;1999.90;999.90;;;9.90;99.90;;;;;;5050985;28;20538;-64
2022/09/27 07:43:18;;;;;;;1999.90;999.90;;;9.90;99.90;;;;;;5051124;28;21073;-64
2022/09/27 07:45:45;;;;;;;1999.90;999.90;;;9.80;99.90;;;;;;5050848;28;20443;-65
2022/09/27 07:48:15;;;;;;;1999.90;999.90;;;9.80;99.90;;;;;;5050332;28;20439;-65
2022/09/27 07:50:42;;;;;;;1999.90;999.90;;;9.80;99.90;;;;;;5050162;28;20448;-64
2022/09/27 07:53:11;;;;;;;1999.90;999.90;;;9.80;99.90;;;;;;5049938;28;20982;-65
2022/09/27 07:55:38;;;;;;;1999.90;999.90;;;9.90;99.90;;;;;;5049949;28;20521;-64
2022/09/27 07:58:07;;;;;;;1999.90;999.90;;;10.00;99.90;;;;;;5050381;28;20455;-66
2022/09/27 08:00:35;;;;;;;1999.90;999.90;;;10.10;99.90;;;;;;5045889;28;20450;-59
2022/09/27 08:03:05;;;;;;;1999.90;999.90;;;10.10;99.90;;;;;;5052185;28;20217;-63
2022/09/27 08:05:34;;;;;;;1999.90;999.90;;;10.10;99.90;;;;;;5056305;28;21008;-63
2022/09/27 08:08:02;;;;;;;1999.90;999.90;;;10.00;99.90;;;;;;5060184;28;20937;-64
2022/09/27 08:10:30;;;;;;;1999.90;999.90;;;10.00;99.90;;;;;;5057801;28;20440;-63
2022/09/27 08:12:57;;;;;;;1999.90;999.90;;;10.10;99.90;;;;;;5057413;28;20444;-63
2022/09/27 08:15:24;;;;;;;1999.90;999.90;;;10.40;99.90;;;;;;5059952;28;20463;-65
2022/09/27 08:17:52;;;;;;;1999.90;999.90;;;10.60;99.90;;;;;;5052217;28;20497;-63
2022/09/27 08:20:19;;;;;;;1999.90;999.90;;;10.70;99.90;;;;;;5049411;28;20462;-63
2022/09/27 08:22:47;;;;;;;1999.90;999.90;;;10.60;99.90;;;;;;5046299;28;20890;-64
2022/09/27 08:25:14;;;;;;;1999.90;999.90;;;10.70;99.90;;;;;;5049439;28;20457;-64
2022/09/27 08:27:41;;;;;;;1999.90;999.90;;;10.70;99.90;;;;;;5049352;28;20607;-64
2022/09/27 08:30:09;;;;;;;1999.90;999.90;;;10.90;99.90;;;;;;5049685;28;20444;-66
2022/09/27 08:32:37;;;;;;;1999.90;999.90;;;11.10;99.90;;;;;;5049035;28;20438;-64
2022/09/27 08:35:06;;;;;;;1999.90;999.90;;;11.30;99.90;;;;;;5049121;28;20510;-64
2022/09/27 08:37:33;;;;;;;1999.90;999.90;;;11.40;99.90;;;;;;5049304;28;20957;-65
2022/09/27 08:40:01;;;;;;;1999.90;999.90;;;11.40;99.90;;;;;;5049451;28;20517;-64
2022/09/27 08:42:38;;;;;;;1999.90;999.90;;;11.30;99.90;;;;;;5049101;28;20515;-65
2022/09/27 08:45:11;;;;;;;1999.90;999.90;;;11.20;99.90;;;;;;5048912;28;20570;-64
2022/09/27 08:47:43;;;;;;;1999.90;999.90;;;11.20;99.90;;;;;;5049075;28;20454;-64
2022/09/27 08:50:22;;;;;;;1999.90;999.90;;;11.40;99.90;;;;;;5047445;28;20440;-64
2022/09/27 08:52:56;;;;;;;1999.90;999.90;;;11.50;99.90;;;;;;5046735;28;20515;-64
2022/09/27 08:55:30;;;;;;;1999.90;999.90;;;11.50;99.90;;;;;;5045857;28;20950;-67
2022/09/27 08:57:59;;;;;;;1999.90;999.90;;;11.70;99.90;;;;;;5048419;28;20824;-63
2022/09/27 09:00:28;;;;;;;1999.90;999.90;;;11.80;99.90;;;;;;5049126;28;20540;-64
2022/09/27 09:02:55;;;;;;;1999.90;999.90;;;11.80;99.90;;;;;;5048942;28;20466;-64
2022/09/27 09:05:29;;;;;;;1999.90;999.90;;;11.80;99.90;;;;;;5049187;28;20464;-62
2022/09/27 09:08:19;;;;;;;1999.90;999.90;;;11.70;99.90;;;;;;5048988;28;20523;-64
2022/09/27 09:13:58;;;;;;;1999.90;999.90;;;11.60;99.90;;;;;;5048690;28;20467;-64
2022/09/27 09:16:35;;;;;;;1999.90;999.90;;;11.70;99.90;;;;;;5048950;28;20440;-65
2022/09/27 09:19:18;;;;;;;1999.90;999.90;;;11.60;99.90;;;;;;5048782;28;20497;-65
2022/09/27 09:21:52;;;;;;;1999.90;999.90;;;11.60;99.90;;;;;;5048859;28;20444;-65
2022/09/27 09:24:38;;;;;;;1999.90;999.90;;;11.40;99.90;;;;;;5049065;28;20487;-64
2022/09/27 09:27:15;;;;;;;1999.90;999.90;;;11.30;99.90;;;;;;5034628;28;20446;-65
2022/09/27 09:30:17;;;;;;;1999.90;999.90;;;11.20;99.90;;;;;;5051905;28;20450;-66
2022/09/27 09:32:57;;;;;;;1999.90;999.90;;;11.20;99.90;;;;;;5047990;28;20455;-64
2022/09/27 09:35:28;;;;;;;1999.90;999.90;;;11.30;99.90;;;;;;5052545;28;20459;-66
2022/09/27 09:37:59;;;;;;;1999.90;999.90;;;11.30;99.90;;;;;;5052413;28;20530;-64
2022/09/27 09:40:31;;;;;;;1999.90;999.90;;;11.40;99.90;;;;;;5052458;28;20440;-65
2022/09/27 09:43:02;;;;;;;1999.90;999.90;;;11.70;99.90;;;;;;5046688;28;20924;-67
2022/09/27 09:45:33;;;;;;;1999.90;999.90;;;12.10;99.90;;;;;;5051072;28;20818;-65
2022/09/27 09:48:05;;;;;;;1999.90;999.90;;;12.40;99.90;;;;;;5058506;28;20475;-66
2022/09/27 09:50:41;;;;;;;1999.90;999.90;;;12.80;99.90;;;;;;5057323;28;20443;-64
2022/09/27 09:53:14;;;;;;;1999.90;999.90;;;13.10;99.90;;;;;;5056966;28;20440;-66
2022/09/27 09:55:47;;;;;;;1999.90;999.90;;;13.30;99.90;;;;;;5058757;28;20941;-66
2022/09/27 09:58:23;;;;;;;1999.90;999.90;;;13.40;99.90;;;;;;5057842;28;20936;-67
2022/09/27 10:00:53;;;;;;;1999.90;999.90;;;13.30;99.90;;;;;;5052018;28;21021;-65
2022/09/27 10:03:20;;;;;;;1999.90;999.90;;;13.20;99.90;;;;;;5057621;28;20436;-65
2022/09/27 10:05:47;;;;;;;1999.90;999.90;;;13.30;99.90;;;;;;5063864;28;20470;-66
2022/09/27 10:08:19;;;;;;;1999.90;999.90;;;13.10;99.90;;;;;;5051666;28;20450;-65
2022/09/27 10:10:46;;;;;;;1999.90;999.90;;;13.10;99.90;;;;;;5051677;28;20448;-66
2022/09/27 10:13:18;;;;;;;1999.90;999.90;;;13.10;99.90;;;;;;5051079;28;20455;-66
2022/09/27 10:15:56;;;;;;;1999.90;999.90;;;13.10;99.90;;;;;;5051824;28;20440;-65
2022/09/27 10:18:25;;;;;;;1999.90;999.90;;;13.40;99.90;;;;;;5051615;28;20451;-65
2022/09/27 10:20:56;;;;;;;1999.90;999.90;;;13.60;99.90;;;;;;5051337;28;21060;-65
2022/09/27 10:23:25;;;;;;;1999.90;999.90;;;13.50;99.90;;;;;;5050142;28;20492;-66
2022/09/27 10:25:55;;;;;;;1999.90;999.90;;;13.30;99.90;;;;;;5043899;28;20871;-65
2022/09/27 10:28:32;;;;;;;1999.90;999.90;;;13.20;99.90;;;;;;5043516;28;20444;-65
2022/09/27 10:31:02;;;;;;;1999.90;999.90;;;13.20;99.90;;;;;;5059232;28;20482;-66
2022/09/27 10:33:31;;;;;;;1999.90;999.90;;;13.20;99.90;;;;;;5053083;28;20440;-65
2022/09/27 10:35:59;;;;;;;1999.90;999.90;;;13.20;99.90;;;;;;5051853;28;20451;-65
2022/09/27 10:38:28;;;;;;;1999.90;999.90;;;13.10;99.90;;;;;;5052901;28;20444;-66
2022/09/27 10:40:57;;;;;;;1999.90;999.90;;;12.90;99.90;;;;;;5049980;28;20444;-66
2022/09/27 10:43:33;;;;;;;1999.90;999.90;;;12.80;99.90;;;;;;5048904;28;20451;-66
2022/09/27 10:46:04;;;;;;;1999.90;999.90;;;12.80;99.90;;;;;;5045129;28;20454;-66
2022/09/27 10:48:31;;;;;;;1999.90;999.90;;;12.80;99.90;;;;;;5051423;28;20470;-65
2022/09/27 10:51:00;;;;;;;1999.90;999.90;;;12.80;99.90;;;;;;5049296;28;21487;-67
2022/09/27 10:53:29;;;;;;;1999.90;999.90;;;12.80;99.90;;;;;;5050084;28;20535;-65
2022/09/27 10:55:56;;;;;;;1999.90;999.90;;;12.50;99.90;;;;;;5050223;28;20890;-65
2022/09/27 10:58:28;;;;;;;1999.90;999.90;;;12.30;99.90;;;;;;5050344;28;20484;-65
2022/09/27 11:01:00;;;;;;;1999.90;999.90;;;12.30;99.90;;;;;;5053565;28;20451;-65
2022/09/27 11:03:28;;;;;;;1999.90;999.90;;;12.20;99.90;;;;;;5050031;28;20448;-66
2022/09/27 11:05:55;;;;;;;1999.90;999.90;;;12.30;99.90;;;;;;5048174;28;20531;-65
2022/09/27 11:08:28;;;;;;;1999.90;999.90;;;12.30;99.90;;;;;;5050567;28;20454;-64
2022/09/27 11:11:18;;;;;;;1999.90;999.90;;;12.40;99.90;;;;;;5050792;28;20452;-66
2022/09/27 11:13:59;;;;;;;1999.90;999.90;;;12.50;99.90;;;;;;5050421;28;20482;-65
2022/09/27 11:16:41;;;;;;;1999.90;999.90;;;12.50;99.90;;;;;;5050341;28;20793;-64
2022/09/27 11:19:24;;;;;;;1999.90;999.90;;;12.40;99.90;;;;;;5050812;28;20456;-61
2022/09/27 11:22:00;;;;;;;1999.90;999.90;;;12.30;99.90;;;;;;5050428;28;20446;-66
2022/09/27 11:24:50;;;;;;;1999.90;999.90;;;12.30;99.90;;;;;;5050707;28;20526;-65
2022/09/27 11:27:29;;;;;;;1999.90;999.90;;;12.20;99.90;;;;;;5050714;28;20451;-65
2022/09/27 11:30:05;;;;;;;1999.90;999.90;;;12.20;99.90;;;;;;5050692;28;20440;-64
2022/09/27 11:32:51;;;;;;;1999.90;999.90;;;12.30;99.90;;;;;;5050305;28;21042;-65
2022/09/27 11:35:46;;;;;;;1999.90;999.90;;;12.50;99.90;;;;;;5050605;28;20879;-65
2022/09/27 11:38:20;;;;;;;1999.90;999.90;;;12.80;99.90;;;;;;5044543;28;20471;-64
2022/09/27 11:41:01;;;;;;;1999.90;999.90;;;13.10;99.90;;;;;;5050152;28;20445;-65
2022/09/27 11:43:44;;;;;;;1999.90;999.90;;;13.10;99.90;;;;;;5050463;28;20444;-65
2022/09/27 11:46:23;;;;;;;1999.90;999.90;;;13.00;99.90;;;;;;5050879;28;20823;-65
2022/09/27 11:49:09;;;;;;;1999.90;999.90;;;13.00;99.90;;;;;;5050643;28;20881;-65
2022/09/27 11:51:53;;;;;;;1999.90;999.90;;;12.80;99.90;;;;;;5049487;28;20439;-65
2022/09/27 11:54:41;;;;;;;1999.90;999.90;;;12.60;99.90;;;;;;5050040;28;20464;-64
2022/09/27 11:57:17;;;;;;;1999.90;999.90;;;12.50;99.90;;;;;;5049982;28;20957;-66
2022/09/27 12:00:06;;;;;;;1999.90;999.90;;;12.30;99.90;;;;;;5050523;28;20796;-64
2022/09/27 12:03:09;;;;;;;1999.90;999.90;;;11.60;99.90;;;;;;5049915;28;20451;-64
2022/09/27 12:05:48;;;;;;;1999.90;999.90;;;10.50;99.90;;;;;;5037243;28;20847;-64
2022/09/27 12:08:32;;;;;;;1999.90;999.90;;;9.60;99.90;;;;;;5050187;28;20811;-64
2022/09/27 12:11:05;;;;;;;1999.90;999.90;;;9.10;99.90;;;;;;5049915;28;20472;-64
2022/09/27 12:13:36;;;;;;;1999.90;999.90;;;9.00;99.90;;;;;;5049690;28;20506;-64
2022/09/27 12:16:04;;;;;;;1999.90;999.90;;;9.00;99.90;;;;;;5049596;28;20973;-65
2022/09/27 12:18:36;;;;;;;1999.90;999.90;;;9.10;99.90;;;;;;5049565;28;20813;-64
2022/09/27 12:21:08;;;;;;;1999.90;999.90;;;9.20;99.90;;;;;;5049632;28;20451;-64
2022/09/27 12:23:40;;;;;;;1999.90;999.90;;;9.20;99.90;;;;;;5049558;28;20483;-63
2022/09/27 12:26:11;;;;;;;1999.90;999.90;;;9.30;99.90;;;;;;5049912;28;20817;-64
2022/09/27 12:28:44;;;;;;;1999.90;999.90;;;9.50;99.90;;;;;;5048805;28;20448;-63